sensor_id;sensor_type;location;lat;lon;timestamp;temperature;humidity
4097;DHT22;2062;50.694;7.246;2024-01-10T00:02:22;-4.30;39.30
4097;DHT22;2062;50.694;7.246;2024-01-10T00:04:49;-4.30;39.10
4097;DHT22;2062;50.694;7.246;2024-01-10T00:07:16;-4.30;39.20
4097;DHT22;2062;50.694;7.246;2024-01-10T00:09:42;-4.30;39.00
4097;DHT22;2062;50.694;7.246;2024-01-10T00:12:11;-4.30;38.90
4097;DHT22;2062;50.694;7.246;2024-01-10T00:14:39;-4.40;39.00
4097;DHT22;2062;50.694;7.246;2024-01-10T00:17:06;-4.40;39.20
4097;DHT22;2062;50.694;7.246;2024-01-10T00:19:32;-4.40;39.40
4097;DHT22;2062;50.694;7.246;2024-01-10T00:21:59;-4.40;39.60
4097;DHT22;2062;50.694;7.246;2024-01-10T00:24:26;-4.40;39.90
4097;DHT22;2062;50.694;7.246;2024-01-10T00:26:53;-4.40;40.00
4097;DHT22;2062;50.694;7.246;2024-01-10T00:29:20;-4.40;40.00
4097;DHT22;2062;50.694;7.246;2024-01-10T00:31:48;-4.40;40.20
4097;DHT22;2062;50.694;7.246;2024-01-10T00:34:15;-4.40;40.20
4097;DHT22;2062;50.694;7.246;2024-01-10T00:36:41;-4.40;39.90
4097;DHT22;2062;50.694;7.246;2024-01-10T00:39:08;-4.50;40.20
4097;DHT22;2062;50.694;7.246;2024-01-10T00:41:35;-4.50;40.20
4097;DHT22;2062;50.694;7.246;2024-01-10T00:44:01;-4.50;40.30
4097;DHT22;2062;50.694;7.246;2024-01-10T00:46:28;-4.50;40.30
4097;DHT22;2062;50.694;7.246;2024-01-10T00:48:56;-4.50;40.40
4097;DHT22;2062;50.694;7.246;2024-01-10T00:51:23;-4.50;40.50
4097;DHT22;2062;50.694;7.246;2024-01-10T00:53:50;-4.50;40.50
4097;DHT22;2062;50.694;7.246;2024-01-10T00:56:16;-4.60;40.50
4097;DHT22;2062;50.694;7.246;2024-01-10T00:58:43;-4.60;40.70
4097;DHT22;2062;50.694;7.246;2024-01-10T01:01:10;-4.60;40.90
4097;DHT22;2062;50.694;7.246;2024-01-10T01:03:37;-4.60;40.80
4097;DHT22;2062;50.694;7.246;2024-01-10T01:06:05;-4.60;40.90
4097;DHT22;2062;50.694;7.246;2024-01-10T01:08:32;-4.60;40.80
4097;DHT22;2062;50.694;7.246;2024-01-10T01:10:58;-4.70;40.90
4097;DHT22;2062;50.694;7.246;2024-01-10T01:13:25;-4.70;41.00
4097;DHT22;2062;50.694;7.246;2024-01-10T01:15:52;-4.70;41.10
4097;DHT22;2062;50.694;7.246;2024-01-10T01:18:19;-4.70;41.20
4097;DHT22;2062;50.694;7.246;2024-01-10T01:20:45;-4.70;41.20
4097;DHT22;2062;50.694;7.246;2024-01-10T01:23:15;-4.80;41.10
4097;DHT22;2062;50.694;7.246;2024-01-10T01:25:42;-4.80;41.00
4097;DHT22;2062;50.694;7.246;2024-01-10T01:28:09;-4.80;41.20
4097;DHT22;2062;50.694;7.246;2024-01-10T01:30:36;-4.80;41.30
4097;DHT22;2062;50.694;7.246;2024-01-10T01:33:04;-4.80;41.40
4097;DHT22;2062;50.694;7.246;2024-01-10T01:35:31;-4.80;41.40
4097;DHT22;2062;50.694;7.246;2024-01-10T01:37:58;-4.90;41.20
4097;DHT22;2062;50.694;7.246;2024-01-10T01:40:26;-4.90;41.10
4097;DHT22;2062;50.694;7.246;2024-01-10T01:42:53;-4.90;41.10
4097;DHT22;2062;50.694;7.246;2024-01-10T01:45:20;-4.90;41.30
4097;DHT22;2062;50.694;7.246;2024-01-10T01:47:46;-4.90;41.30
4097;DHT22;2062;50.694;7.246;2024-01-10T01:50:12;-4.90;41.40
4097;DHT22;2062;50.694;7.246;2024-01-10T01:52:39;-4.90;41.50
4097;DHT22;2062;50.694;7.246;2024-01-10T01:55:08;-4.90;41.40
4097;DHT22;2062;50.694;7.246;2024-01-10T01:57:37;-4.90;41.30
4097;DHT22;2062;50.694;7.246;2024-01-10T02:00:05;-5.00;41.20
4097;DHT22;2062;50.694;7.246;2024-01-10T02:02:32;-5.00;41.30
4097;DHT22;2062;50.694;7.246;2024-01-10T02:05:00;-5.00;41.20
4097;DHT22;2062;50.694;7.246;2024-01-10T02:07:27;-5.00;41.00
4097;DHT22;2062;50.694;7.246;2024-01-10T02:09:54;-5.10;40.90
4097;DHT22;2062;50.694;7.246;2024-01-10T02:12:21;-5.00;40.90
4097;DHT22;2062;50.694;7.246;2024-01-10T02:14:49;-5.00;41.10
4097;DHT22;2062;50.694;7.246;2024-01-10T02:17:16;-5.10;41.30
4097;DHT22;2062;50.694;7.246;2024-01-10T02:19:43;-5.00;41.40
4097;DHT22;2062;50.694;7.246;2024-01-10T02:22:09;-5.00;41.50
4097;DHT22;2062;50.694;7.246;2024-01-10T02:24:37;-5.10;41.40
4097;DHT22;2062;50.694;7.246;2024-01-10T02:27:05;-5.10;41.30
4097;DHT22;2062;50.694;7.246;2024-01-10T02:29:33;-5.10;41.30
4097;DHT22;2062;50.694;7.246;2024-01-10T02:32:00;-5.10;41.50
4097;DHT22;2062;50.694;7.246;2024-01-10T02:34:27;-5.10;41.60
4097;DHT22;2062;50.694;7.246;2024-01-10T02:36:55;-5.10;41.60
4097;DHT22;2062;50.694;7.246;2024-01-10T02:39:22;-5.10;41.80
4097;DHT22;2062;50.694;7.246;2024-01-10T02:41:49;-5.10;41.90
4097;DHT22;2062;50.694;7.246;2024-01-10T02:44:17;-5.10;41.90
4097;DHT22;2062;50.694;7.246;2024-01-10T02:46:45;-5.10;41.70
4097;DHT22;2062;50.694;7.246;2024-01-10T02:49:11;-5.20;41.50
4097;DHT22;2062;50.694;7.246;2024-01-10T02:51:39;-5.10;41.70
4097;DHT22;2062;50.694;7.246;2024-01-10T02:54:05;-5.10;41.80
4097;DHT22;2062;50.694;7.246;2024-01-10T02:56:32;-5.20;41.80
4097;DHT22;2062;50.694;7.246;2024-01-10T02:58:59;-5.20;41.70
4097;DHT22;2062;50.694;7.246;2024-01-10T03:01:27;-5.20;41.80
4097;DHT22;2062;50.694;7.246;2024-01-10T03:03:54;-5.20;41.90
4097;DHT22;2062;50.694;7.246;2024-01-10T03:06:20;-5.20;41.80
4097;DHT22;2062;50.694;7.246;2024-01-10T03:08:47;-5.20;41.70
4097;DHT22;2062;50.694;7.246;2024-01-10T03:11:14;-5.20;41.80
4097;DHT22;2062;50.694;7.246;2024-01-10T03:13:43;-5.20;42.00
4097;DHT22;2062;50.694;7.246;2024-01-10T03:16:10;-5.20;41.90
4097;DHT22;2062;50.694;7.246;2024-01-10T03:18:38;-5.20;42.00
4097;DHT22;2062;50.694;7.246;2024-01-10T03:21:05;-5.20;42.10
4097;DHT22;2062;50.694;7.246;2024-01-10T03:23:32;-5.20;42.20
4097;DHT22;2062;50.694;7.246;2024-01-10T03:25:58;-5.20;42.20
4097;DHT22;2062;50.694;7.246;2024-01-10T03:28:25;-5.20;42.30
4097;DHT22;2062;50.694;7.246;2024-01-10T03:30:52;-5.20;42.30
4097;DHT22;2062;50.694;7.246;2024-01-10T03:33:19;-5.20;42.30
4097;DHT22;2062;50.694;7.246;2024-01-10T03:35:47;-5.20;42.30
4097;DHT22;2062;50.694;7.246;2024-01-10T03:38:13;-5.20;42.20
4097;DHT22;2062;50.694;7.246;2024-01-10T03:40:41;-5.20;42.10
4097;DHT22;2062;50.694;7.246;2024-01-10T03:43:08;-5.30;42.20
4097;DHT22;2062;50.694;7.246;2024-01-10T03:45:35;-5.20;42.20
4097;DHT22;2062;50.694;7.246;2024-01-10T03:48:02;-5.20;42.20
4097;DHT22;2062;50.694;7.246;2024-01-10T03:50:30;-5.20;42.20
4097;DHT22;2062;50.694;7.246;2024-01-10T03:52:58;-5.30;42.10
4097;DHT22;2062;50.694;7.246;2024-01-10T03:55:24;-5.30;42.10
4097;DHT22;2062;50.694;7.246;2024-01-10T03:57:51;-5.20;42.00
4097;DHT22;2062;50.694;7.246;2024-01-10T04:00:18;-5.30;41.90
4097;DHT22;2062;50.694;7.246;2024-01-10T04:02:45;-5.30;41.80
4097;DHT22;2062;50.694;7.246;2024-01-10T04:05:12;-5.30;41.90
4097;DHT22;2062;50.694;7.246;2024-01-10T04:07:40;-5.30;42.00
4097;DHT22;2062;50.694;7.246;2024-01-10T04:10:08;-5.20;42.00
4097;DHT22;2062;50.694;7.246;2024-01-10T04:12:36;-5.20;42.10
4097;DHT22;2062;50.694;7.246;2024-01-10T04:15:03;-5.30;42.10
4097;DHT22;2062;50.694;7.246;2024-01-10T04:17:30;-5.30;42.20
4097;DHT22;2062;50.694;7.246;2024-01-10T04:19:57;-5.30;42.10
4097;DHT22;2062;50.694;7.246;2024-01-10T04:22:24;-5.30;42.20
4097;DHT22;2062;50.694;7.246;2024-01-10T04:24:51;-5.30;42.20
4097;DHT22;2062;50.694;7.246;2024-01-10T04:27:19;-5.30;42.30
4097;DHT22;2062;50.694;7.246;2024-01-10T04:29:46;-5.30;42.40
4097;DHT22;2062;50.694;7.246;2024-01-10T04:32:13;-5.30;42.60
4097;DHT22;2062;50.694;7.246;2024-01-10T04:34:39;-5.30;42.70
4097;DHT22;2062;50.694;7.246;2024-01-10T04:37:06;-5.30;42.70
4097;DHT22;2062;50.694;7.246;2024-01-10T04:39:33;-5.30;42.70
4097;DHT22;2062;50.694;7.246;2024-01-10T04:42:00;-5.30;42.80
4097;DHT22;2062;50.694;7.246;2024-01-10T04:44:28;-5.30;42.80
4097;DHT22;2062;50.694;7.246;2024-01-10T04:46:55;-5.30;42.80
4097;DHT22;2062;50.694;7.246;2024-01-10T04:49:22;-5.30;42.80
4097;DHT22;2062;50.694;7.246;2024-01-10T04:51:50;-5.30;42.80
4097;DHT22;2062;50.694;7.246;2024-01-10T04:54:17;-5.30;42.80
4097;DHT22;2062;50.694;7.246;2024-01-10T04:56:43;-5.30;42.80
4097;DHT22;2062;50.694;7.246;2024-01-10T04:59:10;-5.30;43.00
4097;DHT22;2062;50.694;7.246;2024-01-10T05:01:38;-5.30;43.00
4097;DHT22;2062;50.694;7.246;2024-01-10T05:04:05;-5.30;43.00
4097;DHT22;2062;50.694;7.246;2024-01-10T05:06:32;-5.30;43.00
4097;DHT22;2062;50.694;7.246;2024-01-10T05:08:59;-5.30;43.00
4097;DHT22;2062;50.694;7.246;2024-01-10T05:11:26;-5.40;42.80
4097;DHT22;2062;50.694;7.246;2024-01-10T05:13:52;-5.40;42.80
4097;DHT22;2062;50.694;7.246;2024-01-10T05:16:19;-5.30;42.90
4097;DHT22;2062;50.694;7.246;2024-01-10T05:18:48;-5.30;42.70
4097;DHT22;2062;50.694;7.246;2024-01-10T05:21:15;-5.30;42.50
4097;DHT22;2062;50.694;7.246;2024-01-10T05:23:42;-5.30;42.40
4097;DHT22;2062;50.694;7.246;2024-01-10T05:26:08;-5.30;42.30
4097;DHT22;2062;50.694;7.246;2024-01-10T05:28:35;-5.30;42.20
4097;DHT22;2062;50.694;7.246;2024-01-10T05:31:02;-5.30;42.20
4097;DHT22;2062;50.694;7.246;2024-01-10T05:33:29;-5.30;42.30
4097;DHT22;2062;50.694;7.246;2024-01-10T05:35:57;-5.30;42.50
4097;DHT22;2062;50.694;7.246;2024-01-10T05:38:24;-5.30;42.60
4097;DHT22;2062;50.694;7.246;2024-01-10T05:40:51;-5.30;42.70
4097;DHT22;2062;50.694;7.246;2024-01-10T05:43:18;-5.30;42.80
4097;DHT22;2062;50.694;7.246;2024-01-10T05:45:45;-5.40;42.60
4097;DHT22;2062;50.694;7.246;2024-01-10T05:48:11;-5.40;42.60
4097;DHT22;2062;50.694;7.246;2024-01-10T05:50:38;-5.40;42.60
4097;DHT22;2062;50.694;7.246;2024-01-10T05:53:07;-5.40;42.60
4097;DHT22;2062;50.694;7.246;2024-01-10T05:55:34;-5.40;42.40
4097;DHT22;2062;50.694;7.246;2024-01-10T05:58:02;-5.40;42.40
4097;DHT22;2062;50.694;7.246;2024-01-10T06:00:29;-5.40;42.40
4097;DHT22;2062;50.694;7.246;2024-01-10T06:02:55;-5.40;42.30
4097;DHT22;2062;50.694;7.246;2024-01-10T06:05:22;-5.40;42.40
4097;DHT22;2062;50.694;7.246;2024-01-10T06:07:49;-5.40;42.30
4097;DHT22;2062;50.694;7.246;2024-01-10T06:10:17;-5.40;42.30
4097;DHT22;2062;50.694;7.246;2024-01-10T06:12:44;-5.40;42.50
4097;DHT22;2062;50.694;7.246;2024-01-10T06:15:11;-5.40;42.60
4097;DHT22;2062;50.694;7.246;2024-01-10T06:17:38;-5.40;42.50
4097;DHT22;2062;50.694;7.246;2024-01-10T06:20:05;-5.40;42.60
4097;DHT22;2062;50.694;7.246;2024-01-10T06:22:32;-5.40;42.40
4097;DHT22;2062;50.694;7.246;2024-01-10T06:24:59;-5.40;42.20
4097;DHT22;2062;50.694;7.246;2024-01-10T06:27:27;-5.40;42.30
4097;DHT22;2062;50.694;7.246;2024-01-10T06:29:55;-5.40;42.20
4097;DHT22;2062;50.694;7.246;2024-01-10T06:32:22;-5.40;42.10
4097;DHT22;2062;50.694;7.246;2024-01-10T06:34:49;-5.40;42.10
4097;DHT22;2062;50.694;7.246;2024-01-10T06:37:15;-5.40;42.10
4097;DHT22;2062;50.694;7.246;2024-01-10T06:39:42;-5.30;42.20
4097;DHT22;2062;50.694;7.246;2024-01-10T06:42:09;-5.40;42.10
4097;DHT22;2062;50.694;7.246;2024-01-10T06:44:38;-5.30;42.20
4097;DHT22;2062;50.694;7.246;2024-01-10T06:47:05;-5.30;42.20
4097;DHT22;2062;50.694;7.246;2024-01-10T06:49:32;-5.30;42.10
4097;DHT22;2062;50.694;7.246;2024-01-10T06:51:59;-5.30;42.10
4097;DHT22;2062;50.694;7.246;2024-01-10T06:54:26;-5.30;42.20
4097;DHT22;2062;50.694;7.246;2024-01-10T06:56:53;-5.20;42.40
4097;DHT22;2062;50.694;7.246;2024-01-10T06:59:20;-5.30;42.50
4097;DHT22;2062;50.694;7.246;2024-01-10T07:01:52;-5.20;42.40
4097;DHT22;2062;50.694;7.246;2024-01-10T07:04:21;-5.20;42.30
4097;DHT22;2062;50.694;7.246;2024-01-10T07:06:49;-5.20;42.10
4097;DHT22;2062;50.694;7.246;2024-01-10T07:09:16;-5.20;42.10
4097;DHT22;2062;50.694;7.246;2024-01-10T07:11:45;-5.10;42.30
4097;DHT22;2062;50.694;7.246;2024-01-10T07:14:12;-5.10;42.10
4097;DHT22;2062;50.694;7.246;2024-01-10T07:16:39;-5.10;42.10
4097;DHT22;2062;50.694;7.246;2024-01-10T07:19:09;-5.00;42.10
4097;DHT22;2062;50.694;7.246;2024-01-10T07:21:39;-5.00;42.20
4097;DHT22;2062;50.694;7.246;2024-01-10T07:24:06;-5.00;42.20
4097;DHT22;2062;50.694;7.246;2024-01-10T07:26:34;-5.00;42.30
4097;DHT22;2062;50.694;7.246;2024-01-10T07:29:01;-4.90;42.50
4097;DHT22;2062;50.694;7.246;2024-01-10T07:31:28;-4.90;42.40
4097;DHT22;2062;50.694;7.246;2024-01-10T07:33:55;-4.90;42.40
4097;DHT22;2062;50.694;7.246;2024-01-10T07:36:23;-4.90;42.50
4097;DHT22;2062;50.694;7.246;2024-01-10T07:38:51;-4.90;42.40
4097;DHT22;2062;50.694;7.246;2024-01-10T07:41:18;-4.90;42.30
4097;DHT22;2062;50.694;7.246;2024-01-10T07:43:45;-4.80;42.50
4097;DHT22;2062;50.694;7.246;2024-01-10T07:46:12;-4.80;42.50
4097;DHT22;2062;50.694;7.246;2024-01-10T07:48:39;-4.80;42.40
4097;DHT22;2062;50.694;7.246;2024-01-10T07:51:06;-4.70;42.60
4097;DHT22;2062;50.694;7.246;2024-01-10T07:53:35;-4.70;42.70
4097;DHT22;2062;50.694;7.246;2024-01-10T07:56:02;-4.70;42.50
4097;DHT22;2062;50.694;7.246;2024-01-10T07:58:29;-4.70;42.60
4097;DHT22;2062;50.694;7.246;2024-01-10T08:00:56;-4.70;42.60
4097;DHT22;2062;50.694;7.246;2024-01-10T08:03:23;-4.70;42.40
4097;DHT22;2062;50.694;7.246;2024-01-10T08:05:49;-4.60;42.50
4097;DHT22;2062;50.694;7.246;2024-01-10T08:08:16;-4.60;42.50
4097;DHT22;2062;50.694;7.246;2024-01-10T08:10:44;-4.60;42.60
4097;DHT22;2062;50.694;7.246;2024-01-10T08:13:11;-4.60;42.60
4097;DHT22;2062;50.694;7.246;2024-01-10T08:15:38;-4.60;42.50
4097;DHT22;2062;50.694;7.246;2024-01-10T08:18:04;-4.50;42.70
4097;DHT22;2062;50.694;7.246;2024-01-10T08:20:33;-4.50;42.90
4097;DHT22;2062;50.694;7.246;2024-01-10T08:22:59;-4.50;42.90
4097;DHT22;2062;50.694;7.246;2024-01-10T08:25:26;-4.50;43.10
4097;DHT22;2062;50.694;7.246;2024-01-10T08:27:54;-4.50;43.10
4097;DHT22;2062;50.694;7.246;2024-01-10T08:30:23;-4.50;43.20
4097;DHT22;2062;50.694;7.246;2024-01-10T08:32:51;-4.40;42.80
4097;DHT22;2062;50.694;7.246;2024-01-10T08:35:18;-4.40;43.10
4097;DHT22;2062;50.694;7.246;2024-01-10T08:37:45;-4.40;43.10
4097;DHT22;2062;50.694;7.246;2024-01-10T08:40:12;-4.40;43.10
4097;DHT22;2062;50.694;7.246;2024-01-10T08:42:40;-4.30;43.30
4097;DHT22;2062;50.694;7.246;2024-01-10T08:45:09;-4.30;43.20
4097;DHT22;2062;50.694;7.246;2024-01-10T08:47:36;-4.30;43.10
4097;DHT22;2062;50.694;7.246;2024-01-10T08:50:04;-4.20;43.00
4097;DHT22;2062;50.694;7.246;2024-01-10T08:52:34;-4.20;43.10
4097;DHT22;2062;50.694;7.246;2024-01-10T08:55:01;-4.20;42.90
4097;DHT22;2062;50.694;7.246;2024-01-10T08:57:28;-4.10;43.00
4097;DHT22;2062;50.694;7.246;2024-01-10T08:59:55;-4.10;43.00
4097;DHT22;2062;50.694;7.246;2024-01-10T09:02:24;-4.00;43.00
4097;DHT22;2062;50.694;7.246;2024-01-10T09:04:52;-4.00;43.10
4097;DHT22;2062;50.694;7.246;2024-01-10T09:07:19;-4.00;43.20
4097;DHT22;2062;50.694;7.246;2024-01-10T09:09:46;-3.90;43.40
4097;DHT22;2062;50.694;7.246;2024-01-10T09:12:13;-3.90;43.50
4097;DHT22;2062;50.694;7.246;2024-01-10T09:14:41;-3.80;43.40
4097;DHT22;2062;50.694;7.246;2024-01-10T09:17:07;-3.80;43.50
4097;DHT22;2062;50.694;7.246;2024-01-10T09:19:35;-3.80;43.40
4097;DHT22;2062;50.694;7.246;2024-01-10T09:22:02;-3.70;43.50
4097;DHT22;2062;50.694;7.246;2024-01-10T09:24:29;-3.70;43.60
4097;DHT22;2062;50.694;7.246;2024-01-10T09:26:56;-3.70;43.40
4097;DHT22;2062;50.694;7.246;2024-01-10T09:29:23;-3.60;43.40
4097;DHT22;2062;50.694;7.246;2024-01-10T09:31:51;-3.60;43.70
4097;DHT22;2062;50.694;7.246;2024-01-10T09:34:17;-3.50;43.70
4097;DHT22;2062;50.694;7.246;2024-01-10T09:36:45;-3.50;43.50
4097;DHT22;2062;50.694;7.246;2024-01-10T09:39:12;-3.40;43.30
4097;DHT22;2062;50.694;7.246;2024-01-10T09:41:45;-3.40;43.30
4097;DHT22;2062;50.694;7.246;2024-01-10T09:44:13;-3.40;43.60
4097;DHT22;2062;50.694;7.246;2024-01-10T09:46:41;-3.30;43.50
4097;DHT22;2062;50.694;7.246;2024-01-10T09:49:10;-3.30;43.40
4097;DHT22;2062;50.694;7.246;2024-01-10T09:51:37;-3.20;43.40
4097;DHT22;2062;50.694;7.246;2024-01-10T09:54:05;-3.20;43.40
4097;DHT22;2062;50.694;7.246;2024-01-10T09:56:32;-3.20;43.40
4097;DHT22;2062;50.694;7.246;2024-01-10T09:59:01;-3.10;43.60
4097;DHT22;2062;50.694;7.246;2024-01-10T10:01:30;-3.10;43.60
4097;DHT22;2062;50.694;7.246;2024-01-10T10:03:57;-3.00;43.60
4097;DHT22;2062;50.694;7.246;2024-01-10T10:06:24;-3.00;43.60
4097;DHT22;2062;50.694;7.246;2024-01-10T10:08:51;-2.90;43.90
4097;DHT22;2062;50.694;7.246;2024-01-10T10:11:19;-2.80;43.80
4097;DHT22;2062;50.694;7.246;2024-01-10T10:13:46;-2.80;43.90
4097;DHT22;2062;50.694;7.246;2024-01-10T10:16:13;-2.70;44.00
4097;DHT22;2062;50.694;7.246;2024-01-10T10:18:40;-2.70;44.00
4097;DHT22;2062;50.694;7.246;2024-01-10T10:21:09;-2.60;44.00
4097;DHT22;2062;50.694;7.246;2024-01-10T10:23:37;-2.60;44.00
4097;DHT22;2062;50.694;7.246;2024-01-10T10:26:14;-2.50;44.20
4097;DHT22;2062;50.694;7.246;2024-01-10T10:28:46;-2.50;44.00
4097;DHT22;2062;50.694;7.246;2024-01-10T10:31:13;-2.40;43.70
4097;DHT22;2062;50.694;7.246;2024-01-10T10:33:42;-2.40;44.00
4097;DHT22;2062;50.694;7.246;2024-01-10T10:36:09;-2.40;44.20
4097;DHT22;2062;50.694;7.246;2024-01-10T10:38:36;-2.30;44.10
4097;DHT22;2062;50.694;7.246;2024-01-10T10:41:05;-2.30;44.00
4097;DHT22;2062;50.694;7.246;2024-01-10T10:43:34;-2.30;43.90
4097;DHT22;2062;50.694;7.246;2024-01-10T10:46:04;-2.20;43.90
4097;DHT22;2062;50.694;7.246;2024-01-10T10:48:32;-2.20;43.80
4097;DHT22;2062;50.694;7.246;2024-01-10T10:51:05;-2.20;43.90
4097;DHT22;2062;50.694;7.246;2024-01-10T10:53:33;-2.10;44.00
4097;DHT22;2062;50.694;7.246;2024-01-10T10:56:03;-2.10;44.00
4097;DHT22;2062;50.694;7.246;2024-01-10T10:58:32;-2.10;44.00
4097;DHT22;2062;50.694;7.246;2024-01-10T11:00:59;-2.00;44.10
4097;DHT22;2062;50.694;7.246;2024-01-10T11:03:28;-2.00;44.10
4097;DHT22;2062;50.694;7.246;2024-01-10T11:05:58;-1.90;44.00
4097;DHT22;2062;50.694;7.246;2024-01-10T11:08:27;-1.90;44.20
4097;DHT22;2062;50.694;7.246;2024-01-10T11:10:56;-1.90;44.20
4097;DHT22;2062;50.694;7.246;2024-01-10T11:13:27;-1.80;44.20
4097;DHT22;2062;50.694;7.246;2024-01-10T11:16:11;-1.80;44.10
4097;DHT22;2062;50.694;7.246;2024-01-10T11:19:04;-1.70;44.30
4097;DHT22;2062;50.694;7.246;2024-01-10T11:21:39;-1.60;44.30
4097;DHT22;2062;50.694;7.246;2024-01-10T11:24:10;-1.60;44.30
4097;DHT22;2062;50.694;7.246;2024-01-10T11:26:38;-1.50;44.40
4097;DHT22;2062;50.694;7.246;2024-01-10T11:29:05;-1.40;44.50
4097;DHT22;2062;50.694;7.246;2024-01-10T11:31:32;-1.40;44.40
4097;DHT22;2062;50.694;7.246;2024-01-10T11:34:01;-1.30;44.60
4097;DHT22;2062;50.694;7.246;2024-01-10T11:36:28;-1.30;44.70
4097;DHT22;2062;50.694;7.246;2024-01-10T11:38:58;-1.20;44.60
4097;DHT22;2062;50.694;7.246;2024-01-10T11:41:28;-1.10;44.50
4097;DHT22;2062;50.694;7.246;2024-01-10T11:44:26;-1.00;44.30
4097;DHT22;2062;50.694;7.246;2024-01-10T11:46:54;-0.90;44.80
4097;DHT22;2062;50.694;7.246;2024-01-10T11:49:23;-0.90;44.50
4097;DHT22;2062;50.694;7.246;2024-01-10T11:51:53;-0.80;44.60
4097;DHT22;2062;50.694;7.246;2024-01-10T11:54:39;-0.70;44.80
4097;DHT22;2062;50.694;7.246;2024-01-10T11:57:18;-0.60;44.60
4097;DHT22;2062;50.694;7.246;2024-01-10T11:59:45;-0.50;44.50
4097;DHT22;2062;50.694;7.246;2024-01-10T12:02:14;-0.50;44.10
4097;DHT22;2062;50.694;7.246;2024-01-10T12:04:42;-0.40;43.90
4097;DHT22;2062;50.694;7.246;2024-01-10T12:07:11;-0.30;44.00
4097;DHT22;2062;50.694;7.246;2024-01-10T12:09:38;-0.30;43.80
4097;DHT22;2062;50.694;7.246;2024-01-10T12:12:06;-0.30;44.00
4097;DHT22;2062;50.694;7.246;2024-01-10T12:14:33;-0.20;43.50
4097;DHT22;2062;50.694;7.246;2024-01-10T12:17:01;-0.20;43.60
4097;DHT22;2062;50.694;7.246;2024-01-10T12:19:30;-0.20;43.80
4097;DHT22;2062;50.694;7.246;2024-01-10T12:21:58;-0.20;43.70
4097;DHT22;2062;50.694;7.246;2024-01-10T12:24:27;-0.20;43.70
4097;DHT22;2062;50.694;7.246;2024-01-10T12:26:55;-0.10;43.60
4097;DHT22;2062;50.694;7.246;2024-01-10T12:29:23;-0.10;43.70
4097;DHT22;2062;50.694;7.246;2024-01-10T12:31:50;-0.10;43.20
4097;DHT22;2062;50.694;7.246;2024-01-10T12:34:17;-0.10;43.50
4097;DHT22;2062;50.694;7.246;2024-01-10T12:36:44;0.00;43.30
4097;DHT22;2062;50.694;7.246;2024-01-10T12:39:14;0.00;43.70
4097;DHT22;2062;50.694;7.246;2024-01-10T12:41:40;0.00;43.60
4097;DHT22;2062;50.694;7.246;2024-01-10T12:44:07;0.00;43.70
4097;DHT22;2062;50.694;7.246;2024-01-10T12:46:34;0.10;43.60
4097;DHT22;2062;50.694;7.246;2024-01-10T12:49:02;0.10;43.60
4097;DHT22;2062;50.694;7.246;2024-01-10T12:51:31;0.10;43.00
4097;DHT22;2062;50.694;7.246;2024-01-10T12:53:57;0.10;43.00
4097;DHT22;2062;50.694;7.246;2024-01-10T12:56:27;0.20;42.90
4097;DHT22;2062;50.694;7.246;2024-01-10T12:58:54;0.20;43.30
4097;DHT22;2062;50.694;7.246;2024-01-10T13:01:21;0.20;43.10
4097;DHT22;2062;50.694;7.246;2024-01-10T13:03:48;0.20;42.70
4097;DHT22;2062;50.694;7.246;2024-01-10T13:06:15;0.30;43.20
4097;DHT22;2062;50.694;7.246;2024-01-10T13:08:43;0.30;43.30
4097;DHT22;2062;50.694;7.246;2024-01-10T13:11:10;0.30;42.90
4097;DHT22;2062;50.694;7.246;2024-01-10T13:13:38;0.30;42.70
4097;DHT22;2062;50.694;7.246;2024-01-10T13:16:06;0.40;42.60
4097;DHT22;2062;50.694;7.246;2024-01-10T13:18:32;0.40;42.30
4097;DHT22;2062;50.694;7.246;2024-01-10T13:20:59;0.40;42.20
4097;DHT22;2062;50.694;7.246;2024-01-10T13:23:26;0.40;42.00
4097;DHT22;2062;50.694;7.246;2024-01-10T13:25:53;0.40;42.30
4097;DHT22;2062;50.694;7.246;2024-01-10T13:28:20;0.40;42.20
4097;DHT22;2062;50.694;7.246;2024-01-10T13:30:48;0.40;41.70
4097;DHT22;2062;50.694;7.246;2024-01-10T13:33:16;0.40;41.70
4097;DHT22;2062;50.694;7.246;2024-01-10T13:35:44;0.40;42.10
4097;DHT22;2062;50.694;7.246;2024-01-10T13:38:11;0.40;41.80
4097;DHT22;2062;50.694;7.246;2024-01-10T13:40:37;0.40;41.80
4097;DHT22;2062;50.694;7.246;2024-01-10T13:43:04;0.30;42.00
4097;DHT22;2062;50.694;7.246;2024-01-10T13:45:31;0.40;42.10
4097;DHT22;2062;50.694;7.246;2024-01-10T13:47:59;0.40;42.00
4097;DHT22;2062;50.694;7.246;2024-01-10T13:50:26;0.40;41.80
4097;DHT22;2062;50.694;7.246;2024-01-10T13:52:55;0.40;41.70
4097;DHT22;2062;50.694;7.246;2024-01-10T13:55:22;0.30;41.60
4097;DHT22;2062;50.694;7.246;2024-01-10T13:57:50;0.40;42.00
4097;DHT22;2062;50.694;7.246;2024-01-10T14:00:19;0.40;42.20
4097;DHT22;2062;50.694;7.246;2024-01-10T14:02:46;0.40;41.90
4097;DHT22;2062;50.694;7.246;2024-01-10T14:05:14;0.50;41.80
4097;DHT22;2062;50.694;7.246;2024-01-10T14:07:41;0.50;42.00
4097;DHT22;2062;50.694;7.246;2024-01-10T14:10:10;0.50;42.10
4097;DHT22;2062;50.694;7.246;2024-01-10T14:12:38;0.50;42.70
4097;DHT22;2062;50.694;7.246;2024-01-10T14:15:05;0.60;42.30
4097;DHT22;2062;50.694;7.246;2024-01-10T14:17:33;0.70;43.00
4097;DHT22;2062;50.694;7.246;2024-01-10T14:20:00;0.70;42.50
4097;DHT22;2062;50.694;7.246;2024-01-10T14:22:28;0.80;42.90
4097;DHT22;2062;50.694;7.246;2024-01-10T14:24:55;0.90;42.90
4097;DHT22;2062;50.694;7.246;2024-01-10T14:27:22;0.90;42.50
4097;DHT22;2062;50.694;7.246;2024-01-10T14:29:50;1.00;42.20
4097;DHT22;2062;50.694;7.246;2024-01-10T14:32:16;1.10;42.30
4097;DHT22;2062;50.694;7.246;2024-01-10T14:34:43;1.10;42.20
4097;DHT22;2062;50.694;7.246;2024-01-10T14:37:11;1.10;42.20
4097;DHT22;2062;50.694;7.246;2024-01-10T14:39:39;1.20;42.00
4097;DHT22;2062;50.694;7.246;2024-01-10T14:42:07;1.30;41.90
4097;DHT22;2062;50.694;7.246;2024-01-10T14:44:34;1.30;42.10
4097;DHT22;2062;50.694;7.246;2024-01-10T14:47:02;1.30;42.20
4097;DHT22;2062;50.694;7.246;2024-01-10T14:49:30;1.30;41.70
4097;DHT22;2062;50.694;7.246;2024-01-10T14:51:57;1.40;42.10
4097;DHT22;2062;50.694;7.246;2024-01-10T14:54:24;1.40;41.70
4097;DHT22;2062;50.694;7.246;2024-01-10T14:56:52;1.40;41.50
4097;DHT22;2062;50.694;7.246;2024-01-10T14:59:19;1.40;41.80
4097;DHT22;2062;50.694;7.246;2024-01-10T15:01:46;1.40;41.50
4097;DHT22;2062;50.694;7.246;2024-01-10T15:04:13;1.40;41.00
4097;DHT22;2062;50.694;7.246;2024-01-10T15:06:44;1.50;41.20
4097;DHT22;2062;50.694;7.246;2024-01-10T15:09:11;1.40;41.40
4097;DHT22;2062;50.694;7.246;2024-01-10T15:11:38;1.40;40.90
4097;DHT22;2062;50.694;7.246;2024-01-10T15:14:07;1.30;41.00
4097;DHT22;2062;50.694;7.246;2024-01-10T15:16:34;1.30;40.80
4097;DHT22;2062;50.694;7.246;2024-01-10T15:19:01;1.30;40.90
4097;DHT22;2062;50.694;7.246;2024-01-10T15:21:28;1.20;40.50
4097;DHT22;2062;50.694;7.246;2024-01-10T15:23:55;1.20;40.50
4097;DHT22;2062;50.694;7.246;2024-01-10T15:26:22;1.20;40.50
4097;DHT22;2062;50.694;7.246;2024-01-10T15:28:49;1.10;40.70
4097;DHT22;2062;50.694;7.246;2024-01-10T15:31:17;1.10;40.70
4097;DHT22;2062;50.694;7.246;2024-01-10T15:33:44;1.00;40.50
4097;DHT22;2062;50.694;7.246;2024-01-10T15:36:12;0.90;40.70
4097;DHT22;2062;50.694;7.246;2024-01-10T15:38:39;0.90;40.60
4097;DHT22;2062;50.694;7.246;2024-01-10T15:41:06;0.80;40.60
4097;DHT22;2062;50.694;7.246;2024-01-10T15:43:34;0.80;40.90
4097;DHT22;2062;50.694;7.246;2024-01-10T15:46:01;0.70;40.80
4097;DHT22;2062;50.694;7.246;2024-01-10T15:48:29;0.60;40.60
4097;DHT22;2062;50.694;7.246;2024-01-10T15:50:56;0.50;40.30
4097;DHT22;2062;50.694;7.246;2024-01-10T15:53:23;0.50;40.50
4097;DHT22;2062;50.694;7.246;2024-01-10T15:55:49;0.40;40.50
4097;DHT22;2062;50.694;7.246;2024-01-10T15:58:17;0.30;40.40
4097;DHT22;2062;50.694;7.246;2024-01-10T16:00:43;0.30;40.50
4097;DHT22;2062;50.694;7.246;2024-01-10T16:03:10;0.20;40.50
4097;DHT22;2062;50.694;7.246;2024-01-10T16:05:38;0.10;40.70
4097;DHT22;2062;50.694;7.246;2024-01-10T16:08:05;0.10;40.80